sensor_id;sensor_type;location;lat;lon;timestamp;P1;durP1;ratioP1;P2;durP2;ratioP2
61915;SDS011;47868;51.326;6.550;2024-03-08T00:01:09;17.95;;;15.27;;
61915;SDS011;47868;51.326;6.550;2024-03-08T00:03:35;22.90;;;17.25;;
61915;SDS011;47868;51.326;6.550;2024-03-08T00:06:01;24.35;;;17.02;;
61915;SDS011;47868;51.326;6.550;2024-03-08T00:08:28;20.75;;;16.85;;
61915;SDS011;47868;51.326;6.550;2024-03-08T00:10:55;23.13;;;17.02;;
61915;SDS011;47868;51.326;6.550;2024-03-08T00:13:21;19.83;;;16.85;;
61915;SDS011;47868;51.326;6.550;2024-03-08T00:15:47;23.10;;;16.17;;
61915;SDS011;47868;51.326;6.550;2024-03-08T00:18:13;26.83;;;17.00;;
61915;SDS011;47868;51.326;6.550;2024-03-08T00:20:39;22.45;;;16.70;;
61915;SDS011;47868;51.326;6.550;2024-03-08T00:23:05;21.55;;;16.50;;
61915;SDS011;47868;51.326;6.550;2024-03-08T00:25:31;21.65;;;16.67;;
61915;SDS011;47868;51.326;6.550;2024-03-08T00:27:57;22.08;;;16.23;;
61915;SDS011;47868;51.326;6.550;2024-03-08T00:30:24;22.55;;;17.27;;
61915;SDS011;47868;51.326;6.550;2024-03-08T00:32:50;22.55;;;17.17;;
61915;SDS011;47868;51.326;6.550;2024-03-08T00:35:16;18.27;;;15.90;;
61915;SDS011;47868;51.326;6.550;2024-03-08T00:37:43;21.67;;;17.15;;
61915;SDS011;47868;51.326;6.550;2024-03-08T00:40:12;20.05;;;16.00;;
61915;SDS011;47868;51.326;6.550;2024-03-08T00:42:38;19.02;;;16.88;;
61915;SDS011;47868;51.326;6.550;2024-03-08T00:45:06;23.63;;;17.38;;
61915;SDS011;47868;51.326;6.550;2024-03-08T00:47:32;26.15;;;17.85;;
61915;SDS011;47868;51.326;6.550;2024-03-08T00:49:58;22.98;;;15.85;;
61915;SDS011;47868;51.326;6.550;2024-03-08T00:52:24;20.23;;;16.83;;
61915;SDS011;47868;51.326;6.550;2024-03-08T00:54:50;24.50;;;17.50;;
61915;SDS011;47868;51.326;6.550;2024-03-08T00:57:16;19.67;;;17.23;;
61915;SDS011;47868;51.326;6.550;2024-03-08T00:59:42;20.58;;;16.88;;
61915;SDS011;47868;51.326;6.550;2024-03-08T01:02:08;20.50;;;17.40;;
61915;SDS011;47868;51.326;6.550;2024-03-08T01:04:34;23.05;;;16.98;;
61915;SDS011;47868;51.326;6.550;2024-03-08T01:07:00;21.83;;;17.00;;
61915;SDS011;47868;51.326;6.550;2024-03-08T01:09:27;25.67;;;16.75;;
61915;SDS011;47868;51.326;6.550;2024-03-08T01:11:53;22.45;;;17.98;;
61915;SDS011;47868;51.326;6.550;2024-03-08T01:14:19;21.33;;;17.67;;
61915;SDS011;47868;51.326;6.550;2024-03-08T01:16:47;23.67;;;17.08;;
61915;SDS011;47868;51.326;6.550;2024-03-08T01:19:13;21.05;;;17.67;;
61915;SDS011;47868;51.326;6.550;2024-03-08T01:21:40;21.70;;;17.63;;
61915;SDS011;47868;51.326;6.550;2024-03-08T01:24:06;20.52;;;16.77;;
61915;SDS011;47868;51.326;6.550;2024-03-08T01:26:32;23.63;;;18.27;;
61915;SDS011;47868;51.326;6.550;2024-03-08T01:29:02;22.48;;;17.05;;
61915;SDS011;47868;51.326;6.550;2024-03-08T01:31:28;24.27;;;18.23;;
61915;SDS011;47868;51.326;6.550;2024-03-08T01:33:55;24.77;;;18.48;;
61915;SDS011;47868;51.326;6.550;2024-03-08T01:36:21;22.58;;;17.88;;
61915;SDS011;47868;51.326;6.550;2024-03-08T01:38:47;22.15;;;16.95;;
61915;SDS011;47868;51.326;6.550;2024-03-08T01:41:13;23.75;;;17.73;;
61915;SDS011;47868;51.326;6.550;2024-03-08T01:43:41;28.35;;;18.95;;
61915;SDS011;47868;51.326;6.550;2024-03-08T01:46:07;21.88;;;18.13;;
61915;SDS011;47868;51.326;6.550;2024-03-08T01:48:34;23.58;;;17.73;;
61915;SDS011;47868;51.326;6.550;2024-03-08T01:51:00;23.92;;;19.63;;
61915;SDS011;47868;51.326;6.550;2024-03-08T01:53:26;26.67;;;19.52;;
61915;SDS011;47868;51.326;6.550;2024-03-08T01:55:55;26.48;;;19.17;;
61915;SDS011;47868;51.326;6.550;2024-03-08T01:58:22;24.58;;;19.17;;
61915;SDS011;47868;51.326;6.550;2024-03-08T02:00:48;25.00;;;18.98;;
61915;SDS011;47868;51.326;6.550;2024-03-08T02:03:17;24.13;;;19.35;;
61915;SDS011;47868;51.326;6.550;2024-03-08T02:05:44;22.88;;;18.20;;
61915;SDS011;47868;51.326;6.550;2024-03-08T02:08:10;27.92;;;18.27;;
61915;SDS011;47868;51.326;6.550;2024-03-08T02:10:39;22.55;;;18.00;;
61915;SDS011;47868;51.326;6.550;2024-03-08T02:13:06;26.50;;;19.17;;
61915;SDS011;47868;51.326;6.550;2024-03-08T02:18:17;24.70;;;19.17;;
61915;SDS011;47868;51.326;6.550;2024-03-08T02:20:44;26.13;;;20.50;;
61915;SDS011;47868;51.326;6.550;2024-03-08T02:23:12;25.30;;;18.65;;
61915;SDS011;47868;51.326;6.550;2024-03-08T02:25:38;25.05;;;19.25;;
61915;SDS011;47868;51.326;6.550;2024-03-08T02:28:05;26.40;;;19.00;;
61915;SDS011;47868;51.326;6.550;2024-03-08T02:30:31;23.83;;;18.35;;
61915;SDS011;47868;51.326;6.550;2024-03-08T02:32:57;25.33;;;19.35;;
61915;SDS011;47868;51.326;6.550;2024-03-08T02:35:23;25.45;;;19.23;;
61915;SDS011;47868;51.326;6.550;2024-03-08T02:37:50;28.17;;;20.73;;
61915;SDS011;47868;51.326;6.550;2024-03-08T02:40:16;24.02;;;18.58;;
61915;SDS011;47868;51.326;6.550;2024-03-08T02:42:42;25.38;;;19.30;;
61915;SDS011;47868;51.326;6.550;2024-03-08T02:45:08;24.13;;;18.83;;
61915;SDS011;47868;51.326;6.550;2024-03-08T02:47:37;22.95;;;19.35;;
61915;SDS011;47868;51.326;6.550;2024-03-08T02:50:03;26.25;;;19.92;;
61915;SDS011;47868;51.326;6.550;2024-03-08T02:52:29;25.48;;;18.80;;
61915;SDS011;47868;51.326;6.550;2024-03-08T02:54:55;23.83;;;18.60;;
61915;SDS011;47868;51.326;6.550;2024-03-08T02:57:22;25.77;;;20.05;;
61915;SDS011;47868;51.326;6.550;2024-03-08T02:59:48;22.95;;;19.38;;
61915;SDS011;47868;51.326;6.550;2024-03-08T03:02:14;26.13;;;20.30;;
61915;SDS011;47868;51.326;6.550;2024-03-08T03:04:41;26.17;;;19.80;;
61915;SDS011;47868;51.326;6.550;2024-03-08T03:07:08;25.50;;;20.08;;
61915;SDS011;47868;51.326;6.550;2024-03-08T03:09:34;26.45;;;19.23;;
61915;SDS011;47868;51.326;6.550;2024-03-08T03:12:00;24.02;;;18.63;;
61915;SDS011;47868;51.326;6.550;2024-03-08T03:14:26;26.02;;;19.33;;
61915;SDS011;47868;51.326;6.550;2024-03-08T03:16:52;26.98;;;19.58;;
61915;SDS011;47868;51.326;6.550;2024-03-08T03:19:19;23.73;;;19.25;;
61915;SDS011;47868;51.326;6.550;2024-03-08T03:21:45;26.92;;;19.90;;
61915;SDS011;47868;51.326;6.550;2024-03-08T03:24:12;22.73;;;18.55;;
61915;SDS011;47868;51.326;6.550;2024-03-08T03:26:41;23.42;;;18.50;;
61915;SDS011;47868;51.326;6.550;2024-03-08T03:29:08;23.13;;;18.90;;
61915;SDS011;47868;51.326;6.550;2024-03-08T03:31:36;24.27;;;19.33;;
61915;SDS011;47868;51.326;6.550;2024-03-08T03:34:02;24.80;;;19.50;;
61915;SDS011;47868;51.326;6.550;2024-03-08T03:36:32;26.30;;;20.25;;
61915;SDS011;47868;51.326;6.550;2024-03-08T03:38:59;26.30;;;19.55;;
61915;SDS011;47868;51.326;6.550;2024-03-08T03:41:41;27.20;;;19.35;;
61915;SDS011;47868;51.326;6.550;2024-03-08T03:44:07;26.05;;;20.17;;
61915;SDS011;47868;51.326;6.550;2024-03-08T03:46:33;27.10;;;19.02;;
61915;SDS011;47868;51.326;6.550;2024-03-08T03:49:00;25.33;;;19.52;;
61915;SDS011;47868;51.326;6.550;2024-03-08T03:51:28;26.77;;;20.42;;
61915;SDS011;47868;51.326;6.550;2024-03-08T03:53:55;30.58;;;20.70;;
61915;SDS011;47868;51.326;6.550;2024-03-08T03:56:25;25.15;;;18.75;;
61915;SDS011;47868;51.326;6.550;2024-03-08T03:58:51;26.35;;;19.65;;
61915;SDS011;47868;51.326;6.550;2024-03-08T04:01:17;28.50;;;20.92;;
61915;SDS011;47868;51.326;6.550;2024-03-08T04:03:44;26.42;;;19.73;;
61915;SDS011;47868;51.326;6.550;2024-03-08T04:06:10;29.98;;;20.25;;
61915;SDS011;47868;51.326;6.550;2024-03-08T04:08:36;26.65;;;20.80;;
61915;SDS011;47868;51.326;6.550;2024-03-08T04:11:02;32.38;;;24.15;;
61915;SDS011;47868;51.326;6.550;2024-03-08T04:13:28;28.52;;;21.35;;
61915;SDS011;47868;51.326;6.550;2024-03-08T04:15:55;24.70;;;19.85;;
61915;SDS011;47868;51.326;6.550;2024-03-08T04:18:21;27.60;;;20.90;;
61915;SDS011;47868;51.326;6.550;2024-03-08T04:20:47;29.73;;;20.85;;
61915;SDS011;47868;51.326;6.550;2024-03-08T04:23:13;28.63;;;21.65;;
61915;SDS011;47868;51.326;6.550;2024-03-08T04:25:39;27.48;;;20.95;;
61915;SDS011;47868;51.326;6.550;2024-03-08T04:28:07;30.30;;;21.23;;
61915;SDS011;47868;51.326;6.550;2024-03-08T04:30:35;29.00;;;21.88;;
61915;SDS011;47868;51.326;6.550;2024-03-08T04:33:02;30.48;;;21.98;;
61915;SDS011;47868;51.326;6.550;2024-03-08T04:35:28;29.58;;;21.63;;
61915;SDS011;47868;51.326;6.550;2024-03-08T04:37:55;32.38;;;21.65;;
61915;SDS011;47868;51.326;6.550;2024-03-08T04:40:22;27.27;;;21.40;;
61915;SDS011;47868;51.326;6.550;2024-03-08T04:42:48;26.23;;;21.27;;
61915;SDS011;47868;51.326;6.550;2024-03-08T04:45:16;30.60;;;22.35;;
61915;SDS011;47868;51.326;6.550;2024-03-08T04:47:42;31.70;;;22.00;;
61915;SDS011;47868;51.326;6.550;2024-03-08T04:50:08;26.98;;;21.38;;
61915;SDS011;47868;51.326;6.550;2024-03-08T04:52:34;27.60;;;20.48;;
61915;SDS011;47868;51.326;6.550;2024-03-08T04:55:01;27.02;;;21.42;;
61915;SDS011;47868;51.326;6.550;2024-03-08T04:57:29;30.70;;;21.60;;
61915;SDS011;47868;51.326;6.550;2024-03-08T04:59:55;30.00;;;22.77;;
61915;SDS011;47868;51.326;6.550;2024-03-08T05:02:24;31.17;;;21.17;;
61915;SDS011;47868;51.326;6.550;2024-03-08T05:04:50;33.10;;;21.83;;
61915;SDS011;47868;51.326;6.550;2024-03-08T05:07:17;29.02;;;21.00;;
61915;SDS011;47868;51.326;6.550;2024-03-08T05:09:44;27.30;;;21.55;;
61915;SDS011;47868;51.326;6.550;2024-03-08T05:12:16;27.55;;;20.95;;
61915;SDS011;47868;51.326;6.550;2024-03-08T05:14:42;28.25;;;21.52;;
61915;SDS011;47868;51.326;6.550;2024-03-08T05:17:08;30.88;;;21.58;;
61915;SDS011;47868;51.326;6.550;2024-03-08T05:19:35;28.88;;;22.02;;
61915;SDS011;47868;51.326;6.550;2024-03-08T05:22:01;29.15;;;22.10;;
61915;SDS011;47868;51.326;6.550;2024-03-08T05:24:28;30.70;;;21.80;;
61915;SDS011;47868;51.326;6.550;2024-03-08T05:26:55;30.30;;;21.30;;
61915;SDS011;47868;51.326;6.550;2024-03-08T05:29:21;29.38;;;21.90;;
61915;SDS011;47868;51.326;6.550;2024-03-08T05:31:48;30.25;;;22.88;;
61915;SDS011;47868;51.326;6.550;2024-03-08T05:34:15;32.50;;;22.35;;
61915;SDS011;47868;51.326;6.550;2024-03-08T05:36:41;28.80;;;22.55;;
61915;SDS011;47868;51.326;6.550;2024-03-08T05:39:12;29.08;;;22.55;;
61915;SDS011;47868;51.326;6.550;2024-03-08T05:41:38;28.95;;;23.20;;
61915;SDS011;47868;51.326;6.550;2024-03-08T05:44:05;28.23;;;21.95;;
61915;SDS011;47868;51.326;6.550;2024-03-08T05:46:31;29.60;;;22.85;;
61915;SDS011;47868;51.326;6.550;2024-03-08T05:48:57;33.00;;;23.35;;
61915;SDS011;47868;51.326;6.550;2024-03-08T05:51:24;31.80;;;22.20;;
61915;SDS011;47868;51.326;6.550;2024-03-08T05:53:52;27.52;;;22.27;;
61915;SDS011;47868;51.326;6.550;2024-03-08T05:56:18;29.70;;;22.52;;
61915;SDS011;47868;51.326;6.550;2024-03-08T05:58:44;27.13;;;21.23;;
61915;SDS011;47868;51.326;6.550;2024-03-08T06:01:10;32.95;;;23.00;;
61915;SDS011;47868;51.326;6.550;2024-03-08T06:03:38;29.10;;;22.30;;
61915;SDS011;47868;51.326;6.550;2024-03-08T06:06:11;32.72;;;22.88;;
61915;SDS011;47868;51.326;6.550;2024-03-08T06:08:37;33.78;;;23.90;;
61915;SDS011;47868;51.326;6.550;2024-03-08T06:11:03;32.85;;;22.83;;
61915;SDS011;47868;51.326;6.550;2024-03-08T06:13:30;30.98;;;22.33;;
61915;SDS011;47868;51.326;6.550;2024-03-08T06:15:56;31.27;;;23.00;;
61915;SDS011;47868;51.326;6.550;2024-03-08T06:18:23;31.52;;;22.73;;
61915;SDS011;47868;51.326;6.550;2024-03-08T06:20:49;32.90;;;23.20;;
61915;SDS011;47868;51.326;6.550;2024-03-08T06:23:14;30.42;;;22.33;;
61915;SDS011;47868;51.326;6.550;2024-03-08T06:25:44;32.28;;;22.30;;
61915;SDS011;47868;51.326;6.550;2024-03-08T06:28:11;34.47;;;23.10;;
61915;SDS011;47868;51.326;6.550;2024-03-08T06:30:37;31.25;;;22.98;;
61915;SDS011;47868;51.326;6.550;2024-03-08T06:33:03;33.10;;;22.98;;
61915;SDS011;47868;51.326;6.550;2024-03-08T06:35:29;30.80;;;22.33;;
61915;SDS011;47868;51.326;6.550;2024-03-08T06:37:57;38.80;;;24.38;;
61915;SDS011;47868;51.326;6.550;2024-03-08T06:40:23;36.42;;;25.25;;
61915;SDS011;47868;51.326;6.550;2024-03-08T06:42:49;35.30;;;25.13;;
61915;SDS011;47868;51.326;6.550;2024-03-08T06:45:17;36.08;;;23.70;;
61915;SDS011;47868;51.326;6.550;2024-03-08T06:47:46;33.13;;;23.33;;
61915;SDS011;47868;51.326;6.550;2024-03-08T06:50:12;37.97;;;24.63;;
61915;SDS011;47868;51.326;6.550;2024-03-08T06:52:40;34.63;;;24.00;;
61915;SDS011;47868;51.326;6.550;2024-03-08T06:55:07;35.70;;;24.77;;
61915;SDS011;47868;51.326;6.550;2024-03-08T06:57:37;38.40;;;24.23;;
61915;SDS011;47868;51.326;6.550;2024-03-08T07:00:04;38.28;;;23.92;;
61915;SDS011;47868;51.326;6.550;2024-03-08T07:02:30;34.67;;;24.60;;
61915;SDS011;47868;51.326;6.550;2024-03-08T07:04:57;36.00;;;24.05;;
61915;SDS011;47868;51.326;6.550;2024-03-08T07:07:23;34.35;;;24.42;;
61915;SDS011;47868;51.326;6.550;2024-03-08T07:09:49;33.70;;;24.45;;
61915;SDS011;47868;51.326;6.550;2024-03-08T07:12:15;33.38;;;23.30;;
61915;SDS011;47868;51.326;6.550;2024-03-08T07:14:42;30.00;;;24.08;;
61915;SDS011;47868;51.326;6.550;2024-03-08T07:17:10;36.75;;;24.02;;
61915;SDS011;47868;51.326;6.550;2024-03-08T07:19:36;30.52;;;23.85;;
61915;SDS011;47868;51.326;6.550;2024-03-08T07:22:05;38.35;;;23.77;;
61915;SDS011;47868;51.326;6.550;2024-03-08T07:24:34;29.17;;;23.60;;
61915;SDS011;47868;51.326;6.550;2024-03-08T07:27:15;36.08;;;23.45;;
61915;SDS011;47868;51.326;6.550;2024-03-08T07:29:41;33.60;;;24.00;;
61915;SDS011;47868;51.326;6.550;2024-03-08T07:32:07;33.20;;;24.15;;
61915;SDS011;47868;51.326;6.550;2024-03-08T07:34:50;36.00;;;24.17;;
61915;SDS011;47868;51.326;6.550;2024-03-08T07:37:17;32.25;;;23.38;;
61915;SDS011;47868;51.326;6.550;2024-03-08T07:39:44;35.55;;;24.80;;
61915;SDS011;47868;51.326;6.550;2024-03-08T07:42:10;36.20;;;24.33;;
61915;SDS011;47868;51.326;6.550;2024-03-08T07:44:36;36.13;;;24.08;;
61915;SDS011;47868;51.326;6.550;2024-03-08T07:47:02;34.30;;;24.08;;
61915;SDS011;47868;51.326;6.550;2024-03-08T07:49:34;38.00;;;23.75;;
61915;SDS011;47868;51.326;6.550;2024-03-08T07:52:00;32.17;;;23.80;;
61915;SDS011;47868;51.326;6.550;2024-03-08T07:54:26;33.38;;;24.60;;
61915;SDS011;47868;51.326;6.550;2024-03-08T07:56:52;33.63;;;24.65;;
61915;SDS011;47868;51.326;6.550;2024-03-08T07:59:18;32.08;;;22.60;;
61915;SDS011;47868;51.326;6.550;2024-03-08T08:01:46;29.70;;;22.50;;
61915;SDS011;47868;51.326;6.550;2024-03-08T08:04:12;34.03;;;23.63;;
61915;SDS011;47868;51.326;6.550;2024-03-08T08:06:39;29.27;;;21.52;;
61915;SDS011;47868;51.326;6.550;2024-03-08T08:09:09;31.08;;;23.27;;
61915;SDS011;47868;51.326;6.550;2024-03-08T08:11:39;32.72;;;21.50;;
61915;SDS011;47868;51.326;6.550;2024-03-08T08:14:06;33.78;;;23.95;;
61915;SDS011;47868;51.326;6.550;2024-03-08T08:16:34;35.60;;;23.40;;
61915;SDS011;47868;51.326;6.550;2024-03-08T08:19:01;29.98;;;22.27;;
61915;SDS011;47868;51.326;6.550;2024-03-08T08:21:32;28.58;;;22.08;;
61915;SDS011;47868;51.326;6.550;2024-03-08T08:23:58;31.65;;;22.08;;
61915;SDS011;47868;51.326;6.550;2024-03-08T08:26:25;28.55;;;22.42;;
61915;SDS011;47868;51.326;6.550;2024-03-08T08:28:51;30.25;;;22.35;;
61915;SDS011;47868;51.326;6.550;2024-03-08T08:31:18;29.33;;;21.73;;
61915;SDS011;47868;51.326;6.550;2024-03-08T08:33:44;29.60;;;21.55;;
61915;SDS011;47868;51.326;6.550;2024-03-08T08:36:10;24.33;;;20.02;;
61915;SDS011;47868;51.326;6.550;2024-03-08T08:38:36;27.10;;;20.38;;
61915;SDS011;47868;51.326;6.550;2024-03-08T08:41:03;26.85;;;20.77;;
61915;SDS011;47868;51.326;6.550;2024-03-08T08:43:31;26.70;;;20.35;;
61915;SDS011;47868;51.326;6.550;2024-03-08T08:45:59;27.45;;;19.90;;
61915;SDS011;47868;51.326;6.550;2024-03-08T08:48:26;28.92;;;20.15;;
61915;SDS011;47868;51.326;6.550;2024-03-08T08:50:54;25.88;;;19.95;;
61915;SDS011;47868;51.326;6.550;2024-03-08T08:53:20;25.42;;;19.00;;
61915;SDS011;47868;51.326;6.550;2024-03-08T08:55:47;25.70;;;18.90;;
61915;SDS011;47868;51.326;6.550;2024-03-08T08:58:13;25.63;;;19.10;;
61915;SDS011;47868;51.326;6.550;2024-03-08T09:00:40;24.55;;;18.48;;
61915;SDS011;47868;51.326;6.550;2024-03-08T09:03:08;20.98;;;17.38;;
61915;SDS011;47868;51.326;6.550;2024-03-08T09:05:34;29.23;;;18.63;;
61915;SDS011;47868;51.326;6.550;2024-03-08T09:08:00;21.20;;;16.40;;
61915;SDS011;47868;51.326;6.550;2024-03-08T09:10:28;23.42;;;17.98;;
61915;SDS011;47868;51.326;6.550;2024-03-08T09:12:54;20.67;;;16.88;;
61915;SDS011;47868;51.326;6.550;2024-03-08T09:15:20;24.95;;;17.33;;
61915;SDS011;47868;51.326;6.550;2024-03-08T09:17:47;24.15;;;17.20;;
61915;SDS011;47868;51.326;6.550;2024-03-08T09:20:13;22.75;;;17.05;;
61915;SDS011;47868;51.326;6.550;2024-03-08T09:22:48;22.38;;;17.02;;
61915;SDS011;47868;51.326;6.550;2024-03-08T09:25:15;19.88;;;15.85;;
61915;SDS011;47868;51.326;6.550;2024-03-08T09:27:41;19.70;;;15.98;;
61915;SDS011;47868;51.326;6.550;2024-03-08T09:30:08;19.05;;;15.57;;
61915;SDS011;47868;51.326;6.550;2024-03-08T09:32:38;20.40;;;15.30;;
61915;SDS011;47868;51.326;6.550;2024-03-08T09:35:04;18.17;;;14.57;;
61915;SDS011;47868;51.326;6.550;2024-03-08T09:37:33;21.60;;;14.65;;
61915;SDS011;47868;51.326;6.550;2024-03-08T09:39:59;18.67;;;14.05;;
61915;SDS011;47868;51.326;6.550;2024-03-08T09:42:29;18.50;;;14.05;;
61915;SDS011;47868;51.326;6.550;2024-03-08T09:44:56;18.92;;;14.27;;
61915;SDS011;47868;51.326;6.550;2024-03-08T09:47:24;18.13;;;13.20;;
61915;SDS011;47868;51.326;6.550;2024-03-08T09:49:54;17.42;;;14.40;;
61915;SDS011;47868;51.326;6.550;2024-03-08T09:52:20;21.70;;;14.77;;
61915;SDS011;47868;51.326;6.550;2024-03-08T09:54:46;19.38;;;14.35;;
61915;SDS011;47868;51.326;6.550;2024-03-08T09:57:12;17.73;;;14.32;;
61915;SDS011;47868;51.326;6.550;2024-03-08T09:59:40;18.33;;;14.32;;
61915;SDS011;47868;51.326;6.550;2024-03-08T10:02:13;16.85;;;13.85;;
61915;SDS011;47868;51.326;6.550;2024-03-08T10:04:40;18.17;;;14.13;;
61915;SDS011;47868;51.326;6.550;2024-03-08T10:07:07;16.95;;;14.02;;
61915;SDS011;47868;51.326;6.550;2024-03-08T10:09:33;18.85;;;13.73;;
61915;SDS011;47868;51.326;6.550;2024-03-08T10:11:59;16.50;;;13.25;;
61915;SDS011;47868;51.326;6.550;2024-03-08T10:14:25;14.23;;;12.00;;
61915;SDS011;47868;51.326;6.550;2024-03-08T10:16:51;14.65;;;12.50;;
61915;SDS011;47868;51.326;6.550;2024-03-08T10:19:18;17.83;;;13.30;;
61915;SDS011;47868;51.326;6.550;2024-03-08T10:21:47;18.73;;;12.40;;
61915;SDS011;47868;51.326;6.550;2024-03-08T10:24:14;16.83;;;11.95;;
61915;SDS011;47868;51.326;6.550;2024-03-08T10:26:40;17.48;;;12.23;;
61915;SDS011;47868;51.326;6.550;2024-03-08T10:29:08;18.88;;;13.40;;
61915;SDS011;47868;51.326;6.550;2024-03-08T10:31:34;18.40;;;13.00;;
61915;SDS011;47868;51.326;6.550;2024-03-08T10:34:01;18.65;;;13.65;;
61915;SDS011;47868;51.326;6.550;2024-03-08T10:36:27;14.77;;;12.77;;
61915;SDS011;47868;51.326;6.550;2024-03-08T10:38:54;16.90;;;13.75;;
61915;SDS011;47868;51.326;6.550;2024-03-08T10:41:23;16.80;;;13.73;;
61915;SDS011;47868;51.326;6.550;2024-03-08T10:46:47;19.15;;;13.38;;
61915;SDS011;47868;51.326;6.550;2024-03-08T10:49:19;24.38;;;13.27;;
61915;SDS011;47868;51.326;6.550;2024-03-08T10:51:47;13.85;;;12.45;;
61915;SDS011;47868;51.326;6.550;2024-03-08T10:54:16;14.30;;;12.00;;
61915;SDS011;47868;51.326;6.550;2024-03-08T10:56:43;14.75;;;12.57;;
61915;SDS011;47868;51.326;6.550;2024-03-08T10:59:09;14.65;;;12.43;;
61915;SDS011;47868;51.326;6.550;2024-03-08T11:01:36;14.55;;;12.55;;
61915;SDS011;47868;51.326;6.550;2024-03-08T11:04:05;14.40;;;11.00;;
61915;SDS011;47868;51.326;6.550;2024-03-08T11:11:48;12.07;;;10.38;;
61915;SDS011;47868;51.326;6.550;2024-03-08T11:16:59;16.77;;;11.00;;
61915;SDS011;47868;51.326;6.550;2024-03-08T11:19:31;13.82;;;10.43;;
61915;SDS011;47868;51.326;6.550;2024-03-08T11:22:02;12.52;;;10.30;;
61915;SDS011;47868;51.326;6.550;2024-03-08T11:24:36;11.85;;;10.55;;
61915;SDS011;47868;51.326;6.550;2024-03-08T11:27:05;12.00;;;10.15;;
61915;SDS011;47868;51.326;6.550;2024-03-08T11:29:32;11.52;;;9.60;;
61915;SDS011;47868;51.326;6.550;2024-03-08T11:32:16;11.27;;;9.82;;
61915;SDS011;47868;51.326;6.550;2024-03-08T11:34:45;10.77;;;9.43;;
61915;SDS011;47868;51.326;6.550;2024-03-08T11:37:16;12.07;;;9.32;;
61915;SDS011;47868;51.326;6.550;2024-03-08T11:39:52;13.05;;;10.10;;
61915;SDS011;47868;51.326;6.550;2024-03-08T11:42:24;10.30;;;9.20;;
61915;SDS011;47868;51.326;6.550;2024-03-08T11:44:51;11.43;;;10.23;;
61915;SDS011;47868;51.326;6.550;2024-03-08T11:47:17;10.57;;;9.48;;
61915;SDS011;47868;51.326;6.550;2024-03-08T11:49:43;11.00;;;9.48;;
61915;SDS011;47868;51.326;6.550;2024-03-08T11:52:11;11.63;;;9.93;;
61915;SDS011;47868;51.326;6.550;2024-03-08T11:54:38;11.70;;;10.25;;
61915;SDS011;47868;51.326;6.550;2024-03-08T11:57:04;12.25;;;9.95;;
61915;SDS011;47868;51.326;6.550;2024-03-08T11:59:30;10.43;;;9.32;;
61915;SDS011;47868;51.326;6.550;2024-03-08T12:02:06;11.00;;;9.90;;
61915;SDS011;47868;51.326;6.550;2024-03-08T12:04:35;11.82;;;10.02;;
61915;SDS011;47868;51.326;6.550;2024-03-08T12:07:02;11.00;;;9.85;;
61915;SDS011;47868;51.326;6.550;2024-03-08T12:09:33;11.00;;;9.30;;
61915;SDS011;47868;51.326;6.550;2024-03-08T12:12:01;11.30;;;10.20;;
61915;SDS011;47868;51.326;6.550;2024-03-08T12:14:28;9.88;;;8.90;;
61915;SDS011;47868;51.326;6.550;2024-03-08T12:16:54;10.43;;;9.30;;
61915;SDS011;47868;51.326;6.550;2024-03-08T12:19:20;10.40;;;9.40;;
61915;SDS011;47868;51.326;6.550;2024-03-08T12:21:46;11.77;;;9.88;;
61915;SDS011;47868;51.326;6.550;2024-03-08T12:24:16;10.27;;;9.18;;
61915;SDS011;47868;51.326;6.550;2024-03-08T12:26:46;11.27;;;9.98;;
61915;SDS011;47868;51.326;6.550;2024-03-08T12:29:31;12.57;;;9.13;;
61915;SDS011;47868;51.326;6.550;2024-03-08T12:32:00;11.32;;;9.48;;
61915;SDS011;47868;51.326;6.550;2024-03-08T12:34:26;9.88;;;8.88;;
61915;SDS011;47868;51.326;6.550;2024-03-08T12:36:53;12.93;;;9.07;;
61915;SDS011;47868;51.326;6.550;2024-03-08T12:39:19;11.05;;;8.93;;
61915;SDS011;47868;51.326;6.550;2024-03-08T12:41:52;11.02;;;9.73;;
61915;SDS011;47868;51.326;6.550;2024-03-08T12:44:19;9.80;;;8.80;;
61915;SDS011;47868;51.326;6.550;2024-03-08T12:46:46;11.02;;;9.88;;
61915;SDS011;47868;51.326;6.550;2024-03-08T12:49:13;9.95;;;8.95;;
61915;SDS011;47868;51.326;6.550;2024-03-08T12:51:42;11.30;;;9.65;;
61915;SDS011;47868;51.326;6.550;2024-03-08T12:54:09;10.40;;;9.30;;
61915;SDS011;47868;51.326;6.550;2024-03-08T12:56:35;10.70;;;9.63;;
61915;SDS011;47868;51.326;6.550;2024-03-08T12:59:02;8.73;;;7.93;;
61915;SDS011;47868;51.326;6.550;2024-03-08T13:01:29;9.77;;;8.38;;
61915;SDS011;47868;51.326;6.550;2024-03-08T13:03:57;10.25;;;8.68;;
61915;SDS011;47868;51.326;6.550;2024-03-08T13:06:31;9.88;;;8.98;;
61915;SDS011;47868;51.326;6.550;2024-03-08T13:08:57;9.02;;;8.15;;
61915;SDS011;47868;51.326;6.550;2024-03-08T13:11:24;9.30;;;8.40;;
61915;SDS011;47868;51.326;6.550;2024-03-08T13:13:51;8.40;;;7.60;;
61915;SDS011;47868;51.326;6.550;2024-03-08T13:16:20;8.45;;;7.65;;
61915;SDS011;47868;51.326;6.550;2024-03-08T13:18:46;11.05;;;8.00;;
61915;SDS011;47868;51.326;6.550;2024-03-08T13:21:13;9.40;;;8.07;;
61915;SDS011;47868;51.326;6.550;2024-03-08T13:23:40;8.73;;;7.93;;
61915;SDS011;47868;51.326;6.550;2024-03-08T13:26:11;9.10;;;8.23;;
61915;SDS011;47868;51.326;6.550;2024-03-08T13:28:40;9.98;;;8.20;;
61915;SDS011;47868;51.326;6.550;2024-03-08T13:31:06;8.65;;;7.85;;
61915;SDS011;47868;51.326;6.550;2024-03-08T13:33:32;11.10;;;8.20;;
61915;SDS011;47868;51.326;6.550;2024-03-08T13:36:01;8.93;;;8.07;;
61915;SDS011;47868;51.326;6.550;2024-03-08T13:38:28;9.50;;;8.48;;
61915;SDS011;47868;51.326;6.550;2024-03-08T13:40:54;10.40;;;7.88;;
61915;SDS011;47868;51.326;6.550;2024-03-08T13:43:20;8.73;;;7.93;;
61915;SDS011;47868;51.326;6.550;2024-03-08T13:45:46;7.97;;;7.22;;
61915;SDS011;47868;51.326;6.550;2024-03-08T13:48:12;8.57;;;7.65;;
61915;SDS011;47868;51.326;6.550;2024-03-08T13:50:38;8.68;;;7.57;;
61915;SDS011;47868;51.326;6.550;2024-03-08T13:53:04;8.70;;;7.90;;
61915;SDS011;47868;51.326;6.550;2024-03-08T13:55:30;9.43;;;8.20;;
61915;SDS011;47868;51.326;6.550;2024-03-08T13:57:58;8.73;;;7.93;;
61915;SDS011;47868;51.326;6.550;2024-03-08T14:00:25;8.10;;;7.40;;
61915;SDS011;47868;51.326;6.550;2024-03-08T14:02:52;9.00;;;8.20;;
61915;SDS011;47868;51.326;6.550;2024-03-08T14:05:21;8.25;;;7.55;;
61915;SDS011;47868;51.326;6.550;2024-03-08T14:07:47;8.90;;;8.00;;
61915;SDS011;47868;51.326;6.550;2024-03-08T14:10:14;8.20;;;7.47;;
61915;SDS011;47868;51.326;6.550;2024-03-08T14:12:40;9.27;;;8.13;;
61915;SDS011;47868;51.326;6.550;2024-03-08T14:15:09;9.70;;;7.80;;
61915;SDS011;47868;51.326;6.550;2024-03-08T14:17:36;8.07;;;7.30;;
61915;SDS011;47868;51.326;6.550;2024-03-08T14:20:02;8.88;;;7.97;;
61915;SDS011;47868;51.326;6.550;2024-03-08T14:22:28;8.52;;;7.65;;
61915;SDS011;47868;51.326;6.550;2024-03-08T14:24:56;8.50;;;7.78;;
61915;SDS011;47868;51.326;6.550;2024-03-08T14:27:22;8.60;;;7.80;;
61915;SDS011;47868;51.326;6.550;2024-03-08T14:29:48;8.98;;;8.07;;
61915;SDS011;47868;51.326;6.550;2024-03-08T14:32:14;8.68;;;7.82;;
61915;SDS011;47868;51.326;6.550;2024-03-08T14:34:44;8.40;;;7.50;;
61915;SDS011;47868;51.326;6.550;2024-03-08T14:37:11;8.43;;;7.63;;
61915;SDS011;47868;51.326;6.550;2024-03-08T14:39:38;7.88;;;7.07;;